Main page
METAR-TAF:

METAR-TAF

Airports :

Florence, Italy

Florence Airport

latitude: 43-48N, longitude: 011-12E, elevation: 40 m

Current weather observation

The report was made 10 minutes ago, at 22:20 UTC
Wind 8 kt from the Southwest
Temperature 24°C
Humidity 57%
Pressure 1013 hPa
Visibility 10 km or more
no clouds below 1500 m and no cumulonimbus

METAR: LIRQ 192220Z 23008KT CAVOK 24/15 Q1013

Time: 00:30 (22:30 UTC)

Forecast

The report was made 5 hours and 30 minutes ago, at 17:00 UTC
Forecast valid from 19 at 18 UTC to 20 at 18 UTC
Wind 4 kt from variable directions
Visibility 10 km or more
Few clouds at a height of 3000 ft
Becoming
from 20 at 07 UTC to 20 at 09 UTC
Wind 12 kt from the Northeast

TAF: LIRQ 191700Z 1918/2018 VRB04KT 9999 FEW030 BECMG 2007/2009 04012KT

Weather observations and forecasts of more than 4000 airports (METAR and TAF reports).

The available stations are represented by yellow and red dots on the map.

Hover mouse over dot to see the name of the station.

Then click to see weather observations and forecasts.

To change the map : click on the green buttons with a black cross to zoom in, on the green button with a dash to zoom out, or on the green arrows for adjacent maps.


METAR-TAF: